Time;durP1;ratioP1;P1;durP2;ratioP2;P2;SDS_P1;SDS_P2;PMS_P1;PMS_P2;Temp;Humidity;BMP_temperature;BMP_pressure;BME280_temperature;BME280_humidity;BME280_pressure;Samples;Min_cycle;Max_cycle;Signal;HPM_P1;HPM_P2
2022/04/02 00:00:27;;;;;;;7.93;2.60;;;;;;;8.71;83.23;91785.25;5113275;28;20054;-59
2022/04/02 00:02:52;;;;;;;6.60;1.95;;;;;;;8.63;83.74;91775.69;5113587;28;20027;-59
2022/04/02 00:05:17;;;;;;;5.38;2.65;;;;;;;8.75;82.46;91787.59;5113758;27;20104;-59
2022/04/02 00:07:43;;;;;;;4.35;2.40;;;;;;;8.67;82.80;91795.97;5113644;28;20031;-63
2022/04/02 00:10:08;;;;;;;4.78;2.35;;;;;;;8.79;83.17;91796.16;5113312;28;20024;-61
2022/04/02 00:12:34;;;;;;;5.05;2.33;;;;;;;8.69;83.78;91804.38;5113500;28;20057;-61
2022/04/02 00:14:59;;;;;;;6.45;1.92;;;;;;;8.75;83.04;91807.56;5113407;28;20051;-61
2022/04/02 00:17:25;;;;;;;6.60;1.90;;;;;;;8.85;80.99;91807.59;5103582;28;20410;-62
2022/04/02 00:19:50;;;;;;;5.38;2.05;;;;;;;8.90;81.43;91810.06;5093057;28;20046;-61
2022/04/02 00:22:16;;;;;;;6.47;2.60;;;;;;;8.92;81.49;91821.22;5092658;28;20020;-62
2022/04/02 00:24:42;;;;;;;6.82;2.95;;;;;;;8.84;82.14;91814.38;5092659;28;20020;-61
2022/04/02 00:27:07;;;;;;;7.88;2.50;;;;;;;8.83;78.63;91812.97;5092573;28;20035;-62
2022/04/02 00:29:34;;;;;;;5.82;2.22;;;;;;;8.66;83.00;91813.81;5092908;28;20029;-61
2022/04/02 00:32:00;;;;;;;4.78;2.67;;;;;;;8.69;83.89;91812.63;5091329;28;20154;-62
2022/04/02 00:34:25;;;;;;;5.57;2.95;;;;;;;8.73;83.44;91812.94;5092654;28;20111;-63
2022/04/02 00:36:51;;;;;;;4.50;2.65;;;;;;;8.62;81.16;91801.78;5092678;28;20482;-61
2022/04/02 00:39:16;;;;;;;10.65;2.58;;;;;;;8.49;83.45;91808.38;5092239;28;20047;-62
2022/04/02 00:41:42;;;;;;;4.00;2.22;;;;;;;8.31;85.54;91815.28;5092615;28;20035;-61
2022/04/02 00:44:13;;;;;;;9.13;2.10;;;;;;;8.19;84.96;91801.31;5092338;28;20043;-61
2022/04/02 00:46:42;;;;;;;7.38;2.90;;;;;;;8.37;82.86;91810.22;5092233;28;20056;-61
2022/04/02 00:49:09;;;;;;;6.80;2.55;;;;;;;8.51;81.34;91811.28;5092499;28;20089;-63
2022/04/02 00:51:41;;;;;;;9.57;2.58;;;;;;;8.48;81.37;91819.97;5092139;28;20031;-61
2022/04/02 00:54:10;;;;;;;10.20;4.35;;;;;;;8.34;83.03;91814.84;5092370;28;20020;-61
2022/04/02 00:56:37;;;;;;;5.88;2.40;;;;;;;8.39;83.35;91815.88;5090901;28;20027;-61
2022/04/02 00:59:03;;;;;;;4.40;2.67;;;;;;;8.38;82.90;91809.66;5106673;28;20450;-61
2022/04/02 01:01:28;;;;;;;10.32;3.80;;;;;;;8.37;81.75;91816.47;5112196;27;20100;-66
2022/04/02 01:03:54;;;;;;;4.50;2.50;;;;;;;8.43;83.25;91823.69;5112659;28;20027;-66
2022/04/02 01:06:19;;;;;;;6.63;3.03;;;;;;;8.52;83.33;91832.00;5112627;28;20039;-62
2022/04/02 01:08:46;;;;;;;3.20;2.25;;;;;;;8.63;83.00;91830.72;5112580;28;20077;-60
2022/04/02 01:11:11;;;;;;;6.07;2.75;;;;;;;8.63;82.08;91816.97;5112342;28;20024;-60
2022/04/02 01:13:37;;;;;;;8.18;3.65;;;;;;;8.52;82.80;91829.25;5102867;28;20112;-60
2022/04/02 01:16:03;;;;;;;8.02;3.50;;;;;;;8.36;82.79;91811.50;5091626;28;20069;-59
2022/04/02 01:18:29;;;;;;;6.20;2.83;;;;;;;8.29;83.67;91823.38;5091886;28;20440;-60
2022/04/02 01:20:54;;;;;;;13.20;3.63;;;;;;;8.43;84.03;91821.69;5091546;28;20024;-59
2022/04/02 01:23:20;;;;;;;5.63;2.63;;;;;;;8.44;82.69;91825.16;5091701;28;20024;-59
2022/04/02 01:25:46;;;;;;;7.18;2.88;;;;;;;8.33;83.84;91824.41;5091834;28;20023;-59
2022/04/02 01:28:12;;;;;;;3.10;2.70;;;;;;;8.29;84.53;91820.63;5090498;28;20490;-59
2022/04/02 01:30:38;;;;;;;7.15;2.92;;;;;;;8.29;85.15;91817.88;5091592;28;20020;-59
2022/04/02 01:33:03;;;;;;;28.02;5.00;;;;;;;8.20;84.88;91821.28;5091270;28;20047;-60
2022/04/02 01:35:29;;;;;;;6.30;3.30;;;;;;;8.13;84.08;91824.88;5091197;28;20060;-59
2022/04/02 01:37:54;;;;;;;7.65;3.30;;;;;;;8.19;84.35;91817.06;5091554;28;20024;-64
2022/04/02 01:40:20;;;;;;;8.35;2.72;;;;;;;7.95;84.89;91826.25;5091476;28;20510;-64
2022/04/02 01:42:46;;;;;;;3.92;2.85;;;;;;;7.94;84.30;91839.25;5091141;28;20570;-64
2022/04/02 01:45:13;;;;;;;13.73;5.15;;;;;;;8.00;85.22;91836.97;5089811;28;20016;-64
2022/04/02 01:47:39;;;;;;;5.78;3.42;;;;;;;8.04;84.56;91842.03;5091384;28;20027;-64
2022/04/02 01:50:06;;;;;;;7.93;3.63;;;;;;;7.94;85.54;91838.50;5090482;28;20566;-64
2022/04/02 01:52:32;;;;;;;10.00;3.20;;;;;;;8.08;85.43;91847.84;5091214;28;20425;-63
2022/04/02 01:54:57;;;;;;;9.13;4.78;;;;;;;7.98;85.12;91834.06;5091183;28;20031;-63
2022/04/02 01:57:23;;;;;;;7.65;3.92;;;;;;;7.77;85.60;91852.28;5090821;28;20026;-63
2022/04/02 01:59:50;;;;;;;8.38;3.30;;;;;;;7.88;85.28;91855.28;5090634;28;20028;-65
2022/04/02 02:02:16;;;;;;;10.50;3.03;;;;;;;8.03;84.70;91857.09;5091213;28;20035;-65
2022/04/02 02:04:41;;;;;;;8.13;2.88;;;;;;;7.92;84.80;91865.84;5090809;28;20024;-61
2022/04/02 02:07:07;;;;;;;9.93;2.97;;;;;;;7.89;85.14;91855.97;5090991;28;20020;-61
2022/04/02 02:09:33;;;;;;;5.30;2.17;;;;;;;7.74;85.07;91839.69;5096858;28;20015;-60
2022/04/02 02:11:59;;;;;;;15.90;7.72;;;;;;;7.79;85.68;91860.69;5111374;28;20404;-61
2022/04/02 02:14:24;;;;;;;16.98;11.30;;;;;;;7.57;85.96;91857.66;5110767;28;20020;-60
2022/04/02 02:16:50;;;;;;;10.68;6.10;;;;;;;7.73;85.53;91852.00;5110918;28;20015;-61
2022/04/02 02:19:16;;;;;;;7.72;5.25;;;;;;;7.53;85.68;91860.09;5111195;28;20032;-60
2022/04/02 02:21:41;;;;;;;8.05;4.70;;;;;;;7.53;86.34;91871.09;5109524;28;20428;-60
2022/04/02 02:24:07;;;;;;;8.43;6.13;;;;;;;7.48;87.07;91879.56;5110880;28;20024;-60
2022/04/02 02:26:32;;;;;;;8.68;4.72;;;;;;;7.38;86.78;91867.78;5111044;28;20012;-60
2022/04/02 02:28:58;;;;;;;12.80;6.10;;;;;;;7.42;87.41;91879.09;5110699;28;20027;-60
2022/04/02 02:31:24;;;;;;;6.13;4.68;;;;;;;7.47;86.33;91900.09;5110591;27;20084;-60
2022/04/02 02:36:33;;;;;;;7.32;5.35;;;;;;;7.25;85.70;91887.31;5110679;28;20597;-60
2022/04/02 02:38:59;;;;;;;9.05;5.95;;;;;;;7.26;85.97;91889.50;5110873;28;20019;-61
2022/04/02 02:41:25;;;;;;;9.18;5.22;;;;;;;7.30;85.06;91897.31;5110635;28;20103;-59
2022/04/02 02:43:50;;;;;;;6.53;4.40;;;;;;;7.21;85.00;91882.22;5110585;28;20019;-60
2022/04/02 02:46:17;;;;;;;9.40;4.65;;;;;;;6.93;85.91;91890.91;5110570;28;20019;-62
2022/04/02 02:48:46;;;;;;;11.10;3.95;;;;;;;7.02;86.13;91890.28;5110440;28;20024;-62
2022/04/02 02:51:12;;;;;;;4.97;3.60;;;;;;;7.04;85.12;91873.97;5110704;28;20393;-62
2022/04/02 02:53:38;;;;;;;5.75;3.22;;;;;;;7.05;85.14;91880.19;5110834;28;20023;-60
2022/04/02 02:56:04;;;;;;;4.25;2.30;;;;;;;6.79;86.53;91885.03;5110649;28;20412;-63
2022/04/02 02:58:29;;;;;;;4.97;2.90;;;;;;;6.68;87.22;91893.69;5110346;28;20019;-61
2022/04/02 03:00:55;;;;;;;7.03;2.72;;;;;;;6.62;87.08;91895.22;5110178;28;20039;-61
2022/04/02 03:03:22;;;;;;;6.05;4.20;;;;;;;6.48;87.76;91892.03;5114035;28;20019;-61
2022/04/02 03:05:50;;;;;;;6.80;4.18;;;;;;;6.38;87.70;91887.72;5114816;28;20031;-65
2022/04/02 03:08:18;;;;;;;9.57;4.97;;;;;;;6.25;87.36;91877.03;5114532;28;20015;-66
2022/04/02 03:10:46;;;;;;;4.88;3.17;;;;;;;6.23;87.08;91896.06;5114824;28;20026;-65
2022/04/02 03:13:12;;;;;;;5.40;3.60;;;;;;;6.28;86.77;91897.84;5114366;28;20524;-66
2022/04/02 03:15:38;;;;;;;7.63;4.90;;;;;;;6.19;86.65;91899.19;5114386;28;20026;-64
2022/04/02 03:18:08;;;;;;;16.02;8.63;;;;;;;6.11;87.26;91910.19;5114307;28;20030;-63
2022/04/02 03:20:34;;;;;;;10.93;5.50;;;;;;;5.97;87.24;91900.78;5114175;28;20024;-61
2022/04/02 03:22:59;;;;;;;15.07;7.18;;;;;;;5.94;86.93;91899.13;5114574;28;20031;-61
2022/04/02 03:25:25;;;;;;;11.07;7.75;;;;;;;6.08;87.03;91894.88;5114178;28;20028;-61
2022/04/02 03:27:51;;;;;;;10.30;7.10;;;;;;;6.10;86.43;91886.81;5114532;28;20568;-61
2022/04/02 03:30:20;;;;;;;14.05;7.50;;;;;;;6.09;85.33;91899.06;5114535;28;20022;-61
2022/04/02 03:32:46;;;;;;;9.82;7.45;;;;;;;6.09;85.68;91912.75;5114382;27;20512;-61
2022/04/02 03:35:14;;;;;;;33.88;18.38;;;;;;;5.80;86.48;91900.66;5095705;28;20445;-61
2022/04/02 03:37:41;;;;;;;14.70;10.03;;;;;;;5.91;86.16;91929.66;5113970;28;20035;-63
2022/04/02 03:40:09;;;;;;;11.30;7.18;;;;;;;5.86;86.93;91934.06;5109716;28;20031;-62
2022/04/02 03:42:35;;;;;;;9.10;5.75;;;;;;;5.87;87.67;91932.03;5105255;28;20050;-57
2022/04/02 03:45:01;;;;;;;13.88;6.60;;;;;;;5.93;87.64;91922.31;5093584;28;20027;-57
2022/04/02 03:47:26;;;;;;;9.25;5.80;;;;;;;6.08;85.27;91933.22;5093620;28;20020;-55
2022/04/02 03:49:52;;;;;;;10.90;6.70;;;;;;;5.81;85.22;91929.50;5093563;28;20468;-55
2022/04/02 03:52:17;;;;;;;21.88;9.32;;;;;;;5.72;85.46;91924.59;5093123;28;20426;-56
2022/04/02 03:54:43;;;;;;;14.68;8.48;;;;;;;5.47;86.25;91948.41;5093102;28;20067;-60
2022/04/02 03:57:10;;;;;;;10.23;5.05;;;;;;;5.56;86.92;91949.84;5093407;28;20039;-59
2022/04/02 03:59:35;;;;;;;12.10;6.65;;;;;;;5.59;87.82;91929.59;5112417;28;20095;-59
2022/04/02 04:02:01;;;;;;;25.63;15.68;;;;;;;5.61;88.21;91949.63;5112184;28;20504;-58
2022/04/02 04:04:27;;;;;;;3.13;2.70;;;;;;;5.32;87.25;91941.00;5113844;27;20034;-58
2022/04/02 04:06:53;;;;;;;11.70;7.28;;;;;;;5.21;88.28;91946.13;5113226;28;20508;-59
2022/04/02 04:09:20;;;;;;;18.00;11.13;;;;;;;5.39;88.88;91961.41;5113325;28;20072;-59
2022/04/02 04:11:46;;;;;;;23.23;10.63;;;;;;;5.56;87.60;91961.53;5113686;28;20442;-59
2022/04/02 04:14:12;;;;;;;75.35;32.42;;;;;;;5.53;87.48;91957.16;5113022;28;20415;-59
2022/04/02 04:16:38;;;;;;;44.38;21.77;;;;;;;5.56;88.19;91969.00;5113492;28;20028;-59
2022/04/02 04:19:03;;;;;;;13.10;6.75;;;;;;;5.51;87.41;91973.41;5113449;28;20069;-59
2022/04/02 04:21:29;;;;;;;17.63;8.77;;;;;;;5.52;86.80;91961.19;5113142;28;20027;-58
2022/04/02 04:23:54;;;;;;;17.45;10.32;;;;;;;5.43;86.59;91967.22;5096129;28;20028;-59
2022/04/02 04:26:20;;;;;;;22.63;13.48;;;;;;;5.35;87.62;91969.25;5092723;28;20070;-61
2022/04/02 04:28:45;;;;;;;21.83;14.45;;;;;;;5.36;87.61;91973.44;5093025;28;20026;-62
2022/04/02 04:31:11;;;;;;;21.92;14.02;;;;;;;5.45;86.95;91972.16;5092854;28;20028;-63
2022/04/02 04:33:39;;;;;;;28.42;15.48;;;;;;;5.32;85.88;91965.63;5092912;28;20030;-66
2022/04/02 04:36:05;;;;;;;23.77;12.30;;;;;;;5.43;86.75;91994.59;5092803;28;20417;-66
2022/04/02 04:38:31;;;;;;;16.83;9.88;;;;;;;5.50;86.00;92002.03;5092376;28;20461;-66
2022/04/02 04:40:56;;;;;;;15.88;10.02;;;;;;;5.46;85.58;92007.16;5092305;28;20089;-51
2022/04/02 04:43:22;;;;;;;34.53;18.10;;;;;;;5.52;85.88;91991.31;5092611;28;20030;-57
2022/04/02 04:45:47;;;;;;;27.98;16.42;;;;;;;5.41;85.78;91993.69;5092336;28;20027;-58
2022/04/02 04:48:12;;;;;;;32.17;19.55;;;;;;;5.44;86.31;91998.78;5092272;28;20057;-57
2022/04/02 04:50:38;;;;;;;21.02;14.73;;;;;;;5.29;86.42;91990.59;5092306;28;20024;-54
2022/04/02 04:53:03;;;;;;;20.73;12.70;;;;;;;5.42;86.35;91993.13;5092164;28;20077;-56
2022/04/02 04:55:29;;;;;;;15.70;9.77;;;;;;;5.58;87.46;92005.50;5092052;28;20016;-58
2022/04/02 04:57:55;;;;;;;16.88;11.55;;;;;;;5.86;87.37;91996.31;5097171;28;20095;-59
2022/04/02 05:00:20;;;;;;;17.05;10.77;;;;;;;5.73;85.77;91980.81;5112486;28;20672;-58
2022/04/02 05:02:47;;;;;;;21.38;12.70;;;;;;;5.75;85.80;91985.75;5099849;28;20630;-59
2022/04/02 05:05:12;;;;;;;12.18;7.97;;;;;;;5.94;85.51;92000.50;5091882;28;20024;-59
2022/04/02 05:07:39;;;;;;;17.83;12.25;;;;;;;6.09;84.62;92005.91;5098401;28;20042;-59
2022/04/02 05:10:05;;;;;;;24.55;13.40;;;;;;;6.09;83.32;92002.44;5099558;28;20551;-59
2022/04/02 05:12:31;;;;;;;29.17;15.48;;;;;;;6.27;83.64;91997.78;5090518;28;20028;-65
2022/04/02 05:14:57;;;;;;;21.00;13.52;;;;;;;6.43;83.86;91999.19;5090421;28;20020;-66
2022/04/02 05:17:22;;;;;;;17.98;12.73;;;;;;;6.51;83.74;92005.34;5091984;28;20077;-65
2022/04/02 05:19:48;;;;;;;17.70;11.68;;;;;;;6.53;83.52;91989.78;5091910;28;20048;-63
2022/04/02 05:22:14;;;;;;;16.65;11.15;;;;;;;6.69;83.00;91990.44;5091796;28;20038;-63
2022/04/02 05:24:39;;;;;;;21.15;10.70;;;;;;;6.81;82.91;91996.91;5090575;28;20016;-66
2022/04/02 05:27:05;;;;;;;12.68;7.65;;;;;;;6.82;82.95;91990.84;5094017;28;20030;-64
2022/04/02 05:29:30;;;;;;;9.18;7.55;;;;;;;6.99;83.65;91995.69;5097010;28;20077;-63
2022/04/02 05:31:56;;;;;;;11.60;9.20;;;;;;;7.20;83.62;92015.28;5093931;28;20408;-60
2022/04/02 05:34:21;;;;;;;19.67;13.95;;;;;;;7.35;82.65;92009.66;5091434;28;20020;-61
2022/04/02 05:36:47;;;;;;;33.95;19.52;;;;;;;7.29;82.69;92017.41;5091614;28;20412;-63
2022/04/02 05:39:12;;;;;;;33.55;18.60;;;;;;;7.33;83.43;92014.25;5091450;28;20446;-63
2022/04/02 05:41:38;;;;;;;28.70;15.73;;;;;;;7.65;82.65;92008.63;5091833;28;20021;-64
2022/04/02 05:44:07;;;;;;;28.60;16.20;;;;;;;8.09;81.66;92008.72;5091256;28;20024;-63
2022/04/02 05:46:32;;;;;;;;;;;;;;;8.68;79.54;92020.28;5091968;28;20027;-65
2022/04/02 05:48:58;;;;;;;21.00;12.35;;;;;;;9.31;76.62;91983.75;5091491;28;20366;-65
2022/04/02 05:51:24;;;;;;;25.27;16.58;;;;;;;10.30;73.21;92017.25;5111262;28;20513;-63
2022/04/02 05:53:49;;;;;;;18.70;11.50;;;;;;;10.80;71.20;92016.59;5111233;28;20043;-63
2022/04/02 05:56:15;;;;;;;6.18;3.20;;;;;;;10.94;62.17;92006.53;5111516;28;20062;-63
2022/04/02 05:58:41;;;;;;;6.05;3.30;;;;;;;10.93;60.88;92011.34;5100194;28;20085;-60
2022/04/02 06:01:07;;;;;;;3.55;2.55;;;;;;;10.81;59.94;92018.03;5098093;28;20123;-61
2022/04/02 06:03:33;;;;;;;1.98;1.20;;;;;;;11.04;57.50;92007.25;5092452;28;20051;-63
2022/04/02 06:05:58;;;;;;;22.23;8.77;;;;;;;11.89;58.94;92017.19;5110554;28;20054;-64
2022/04/02 06:08:24;;;;;;;8.90;3.53;;;;;;;12.46;57.20;92012.53;5111850;28;20026;-63
2022/04/02 06:10:49;;;;;;;7.05;5.03;;;;;;;13.88;53.78;92037.25;5108965;28;20099;-64
2022/04/02 06:13:15;;;;;;;7.10;4.80;;;;;;;15.02;49.66;92003.50;5105737;28;20023;-64
2022/04/02 06:15:41;;;;;;;2.63;1.60;;;;;;;15.57;44.97;92024.56;5090681;28;20024;-59
2022/04/02 06:18:07;;;;;;;3.22;2.15;;;;;;;15.45;43.96;92029.50;5090886;28;20076;-59
2022/04/02 06:20:32;;;;;;;6.63;3.80;;;;;;;16.07;45.06;92039.69;5090510;28;20074;-61
2022/04/02 06:22:59;;;;;;;3.10;2.03;;;;;;;16.22;41.78;92042.56;5094660;28;20118;-62
2022/04/02 06:25:24;;;;;;;5.60;1.05;;;;;;;16.32;41.25;92034.00;5111048;28;20412;-63
2022/04/02 06:27:50;;;;;;;6.18;1.70;;;;;;;16.40;41.17;92031.59;5110894;28;20024;-64
2022/04/02 06:30:18;;;;;;;7.63;2.47;;;;;;;17.73;39.43;92035.22;5110726;28;20041;-62
2022/04/02 06:32:44;;;;;;;5.88;1.77;;;;;;;17.82;36.56;92031.44;5110998;28;20019;-59
2022/04/02 06:35:10;;;;;;;2.05;1.23;;;;;;;18.30;36.25;92030.75;5110419;28;20504;-60
2022/04/02 06:37:40;;;;;;;3.47;1.60;;;;;;;18.94;35.26;92029.97;5110631;28;20016;-60
2022/04/02 06:40:09;;;;;;;2.92;2.10;;;;;;;18.81;35.58;92034.34;5110953;28;20049;-58
2022/04/02 06:42:35;;;;;;;3.17;1.25;;;;;;;18.71;35.22;92036.72;5110739;28;20027;-60
2022/04/02 06:45:01;;;;;;;1.42;1.20;;;;;;;18.10;34.77;92038.97;5110941;28;20070;-58
2022/04/02 06:47:28;;;;;;;5.30;1.13;;;;;;;17.09;37.28;92036.41;5110621;28;20024;-60
2022/04/02 06:49:54;;;;;;;1.42;1.10;;;;;;;18.03;37.72;92033.75;5110538;28;20032;-58
2022/04/02 06:52:20;;;;;;;6.35;2.75;;;;;;;18.78;35.16;92054.47;5110619;28;20059;-56
2022/04/02 06:54:45;;;;;;;6.53;2.53;;;;;;;20.09;33.31;92051.25;5102220;28;20027;-53
2022/04/02 06:57:16;;;;;;;1.30;1.00;;;;;;;21.57;31.08;92052.84;5090143;28;20028;-59
2022/04/02 06:59:42;;;;;;;10.45;5.03;;;;;;;22.92;29.58;92068.06;5089761;28;20024;-57
2022/04/02 07:02:07;;;;;;;13.00;6.40;;;;;;;23.84;27.53;92060.50;5090406;28;20390;-58
2022/04/02 07:04:33;;;;;;;2.90;1.88;;;;;;;24.18;27.58;92063.41;5090287;28;20047;-58
2022/04/02 07:06:59;;;;;;;6.93;5.28;;;;;;;24.48;25.24;92058.41;5090381;28;20489;-57
2022/04/02 07:09:24;;;;;;;2.15;1.60;;;;;;;24.16;25.47;92058.44;5090200;28;20409;-57
2022/04/02 07:11:49;;;;;;;15.50;4.07;;;;;;;23.28;26.91;92051.41;5090078;28;20024;-55
2022/04/02 07:14:15;;;;;;;7.80;3.20;;;;;;;24.06;26.24;92061.75;5089809;28;20031;-55
2022/04/02 07:16:40;;;;;;;5.70;2.20;;;;;;;23.99;25.09;92062.25;5089971;28;20024;-52
2022/04/02 07:19:08;;;;;;;3.22;2.08;;;;;;;23.97;24.08;92065.03;5089769;28;20031;-57
2022/04/02 07:21:34;;;;;;;4.00;1.45;;;;;;;23.44;25.53;92046.19;5089953;28;20075;-51
2022/04/02 07:24:00;;;;;;;2.00;0.93;;;;;;;24.02;23.84;92053.16;5090528;28;20038;-66
2022/04/02 07:26:26;;;;;;;2.80;1.20;;;;;;;23.63;24.10;92033.94;5096646;28;20099;-58
2022/04/02 07:28:52;;;;;;;2.65;1.02;;;;;;;24.00;24.26;92055.22;5109935;28;20020;-61
2022/04/02 07:31:17;;;;;;;3.38;2.70;;;;;;;25.29;22.21;92036.00;5108722;28;20515;-53
2022/04/02 07:33:43;;;;;;;2.72;1.45;;;;;;;25.19;21.60;92035.78;5109852;28;20106;-48
2022/04/02 07:36:33;;;;;;;7.18;1.10;;;;;;;24.46;23.04;92056.25;5108665;28;20023;-54
2022/04/02 07:39:21;;;;;;;14.52;3.45;;;;;;;25.11;22.20;92052.59;5090219;28;20032;-53
2022/04/02 07:42:02;;;;;;;3.05;1.13;;;;;;;26.06;21.00;92037.22;5101769;28;20122;-54
2022/04/02 07:44:44;;;;;;;2.90;1.85;;;;;;;27.15;21.09;92047.13;5096693;28;20028;-53
2022/04/02 07:47:13;;;;;;;2.72;1.60;;;;;;;26.79;21.78;92036.13;5087768;28;20031;-54
2022/04/02 07:49:40;;;;;;;3.83;1.67;;;;;;;27.83;19.78;92030.75;5092039;28;20108;-52
2022/04/02 07:52:08;;;;;;;4.53;0.98;;;;;;;27.58;18.89;92043.31;5108886;28;20419;-52
2022/04/02 07:54:39;;;;;;;2.50;0.73;;;;;;;27.11;19.81;92030.06;5110597;28;20496;-55
2022/04/02 07:57:08;;;;;;;3.40;2.28;;;;;;;27.30;20.67;92040.91;5112186;28;20515;-54
2022/04/02 07:59:39;;;;;;;3.33;1.90;;;;;;;27.58;19.27;92034.81;5112342;28;20031;-56
2022/04/02 08:02:36;;;;;;;4.80;2.85;;;;;;;26.31;19.89;92048.19;5102410;28;20195;-58
2022/04/02 08:04:53;;;;;;;4.65;2.00;;;;;;;27.70;19.97;92046.94;5107057;28;20064;-59
2022/04/02 08:07:19;;;;;;;12.80;2.33;;;;;;;26.38;20.62;92040.50;5094030;28;20032;-59
2022/04/02 08:09:44;;;;;;;3.20;2.13;;;;;;;25.87;20.26;92041.16;5090513;28;20036;-57
2022/04/02 08:12:12;;;;;;;2.10;0.80;;;;;;;25.22;20.73;92031.63;5092556;28;20467;-59
2022/04/02 08:14:39;;;;;;;2.88;1.00;;;;;;;24.20;21.66;92032.41;5091642;28;20024;-57
2022/04/02 08:17:07;;;;;;;5.88;1.92;;;;;;;24.40;22.04;92032.84;5091641;28;20023;-58
2022/04/02 08:19:33;;;;;;;4.80;2.47;;;;;;;25.26;22.45;92042.28;5090248;28;20038;-59
2022/04/02 08:21:58;;;;;;;3.50;1.27;;;;;;;26.74;20.97;92041.00;5089936;28;20028;-59
2022/04/02 08:24:24;;;;;;;2.13;1.00;;;;;;;27.18;19.46;92051.41;5090789;28;20104;-58
2022/04/02 08:27:02;;;;;;;1.92;0.90;;;;;;;26.08;20.88;92040.81;5090649;28;20035;-60
2022/04/02 08:30:02;;;;;;;3.90;1.77;;;;;;;27.17;19.74;92041.47;5090791;28;20043;-59
2022/04/02 08:32:37;;;;;;;2.58;0.60;;;;;;;27.04;19.91;92040.63;5095141;28;20461;-61
2022/04/02 08:35:06;;;;;;;2.30;1.05;;;;;;;27.81;19.06;92027.88;5111243;28;20024;-59
2022/04/02 08:37:34;;;;;;;5.70;2.70;;;;;;;29.24;19.07;92037.22;5111245;27;20039;-60
2022/04/02 08:40:02;;;;;;;3.95;1.20;;;;;;;27.61;18.78;92042.63;5111169;28;20028;-59
2022/04/02 08:43:08;;;;;;;1.80;1.13;;;;;;;27.87;19.59;92032.91;5112796;28;20038;-58
2022/04/02 08:45:34;;;;;;;2.10;0.80;;;;;;;28.13;17.87;92028.16;5111537;28;20488;-59
2022/04/02 08:48:20;;;;;;;6.07;1.05;;;;;;;27.58;17.92;92034.81;5098398;28;20032;-58
2022/04/02 08:50:49;;;;;;;4.03;2.05;;;;;;;28.22;17.72;92028.94;5092206;28;20039;-57
2022/04/02 08:53:20;;;;;;;3.88;0.60;;;;;;;26.48;18.11;92014.47;5092502;28;20425;-56
2022/04/02 08:56:09;;;;;;;3.38;1.83;;;;;;;26.54;18.98;92009.59;5092091;28;20501;-58
2022/04/02 08:58:47;;;;;;;3.72;1.98;;;;;;;26.87;19.48;91985.22;5091146;28;20124;-57
2022/04/02 09:01:28;;;;;;;1.10;0.80;;;;;;;27.69;18.49;92005.13;5090752;28;20204;-57
2022/04/02 09:04:25;;;;;;;2.78;1.30;;;;;;;27.72;18.15;92012.94;5091982;28;20501;-57
2022/04/02 09:07:27;;;;;;;2.65;1.60;;;;;;;27.78;18.99;92024.34;5092374;28;20394;-58
2022/04/02 09:10:14;;;;;;;1.95;1.02;;;;;;;28.51;18.05;92014.19;5091879;28;20028;-59
2022/04/02 09:13:06;;;;;;;5.67;1.80;;;;;;;27.26;18.53;92015.34;5092191;28;20027;-58
2022/04/02 09:16:15;;;;;;;1.45;0.60;;;;;;;28.00;18.59;92009.63;5091976;28;20048;-58
2022/04/02 09:19:02;;;;;;;1.80;0.50;;;;;;;26.64;18.17;92003.34;5032486;28;20471;-57
2022/04/02 09:21:31;;;;;;;1.73;0.98;;;;;;;27.44;20.60;92020.50;5032160;28;20485;-58
2022/04/02 09:24:04;;;;;;;4.32;0.73;;;;;;;27.39;18.27;92024.72;5069883;28;20069;-58
2022/04/02 09:26:55;;;;;;;3.78;1.67;;;;;;;27.90;17.84;92028.66;5091849;28;20058;-58
2022/04/02 09:29:37;;;;;;;1.02;0.68;;;;;;;27.51;18.00;92033.31;5090660;28;20402;-59
2022/04/02 09:32:14;;;;;;;11.38;2.05;;;;;;;27.71;18.24;92022.88;5090352;28;20070;-57
2022/04/02 09:34:58;;;;;;;2.15;0.80;;;;;;;28.27;16.82;92027.53;5091352;28;20020;-58
2022/04/02 09:37:43;;;;;;;4.10;1.42;;;;;;;28.37;17.25;92016.94;5091703;28;20090;-58
2022/04/02 09:40:12;;;;;;;2.70;0.95;;;;;;;27.56;18.37;92031.94;5091404;28;20553;-57
2022/04/02 09:42:45;;;;;;;1.88;1.20;;;;;;;26.79;18.63;92053.78;5091153;28;20028;-57
2022/04/02 09:45:21;;;;;;;3.22;1.45;;;;;;;26.06;18.74;92048.53;5091451;28;20131;-56
2022/04/02 09:48:18;;;;;;;4.35;1.38;;;;;;;27.21;18.41;92064.91;5091228;28;20028;-56
2022/04/02 09:50:45;;;;;;;4.57;1.48;;;;;;;27.03;18.43;92056.91;5091075;28;20057;-56
2022/04/02 09:53:15;;;;;;;1.75;0.82;;;;;;;25.89;20.19;92055.34;5089846;28;20114;-56
2022/04/02 09:56:01;;;;;;;5.88;1.10;;;;;;;26.76;19.35;92041.03;5091246;28;20131;-57
2022/04/02 09:58:29;;;;;;;3.60;2.05;;;;;;;27.49;18.47;92045.34;5090550;28;20033;-55
2022/04/02 10:01:05;;;;;;;3.10;1.77;;;;;;;27.37;16.99;92041.69;5090695;28;20059;-53
2022/04/02 10:03:41;;;;;;;12.75;1.98;;;;;;;27.19;18.25;92052.81;5090990;28;20028;-56
2022/04/02 10:06:25;;;;;;;4.15;1.73;;;;;;;26.54;18.97;92054.88;5107804;28;20024;-57
2022/04/02 10:09:10;;;;;;;6.88;1.80;;;;;;;27.53;19.52;92061.69;5111196;28;20048;-55
2022/04/02 10:11:43;;;;;;;2.15;1.40;;;;;;;28.16;17.74;92037.38;5088532;28;20036;-55
2022/04/02 10:14:09;;;;;;;1.33;0.60;;;;;;;27.94;19.13;92042.91;5089041;28;20028;-53
2022/04/02 10:16:35;;;;;;;2.15;1.30;;;;;;;27.66;18.21;92027.06;5088299;28;20550;-52
2022/04/02 10:19:02;;;;;;;2.22;2.00;;;;;;;26.76;18.78;92043.16;5088428;28;20027;-50
2022/04/02 10:21:30;;;;;;;1.65;1.35;;;;;;;25.77;20.15;92038.91;5086752;28;20100;-55
2022/04/02 10:24:21;;;;;;;13.38;1.80;;;;;;;24.60;21.42;92031.13;5088081;28;20032;-52
2022/04/02 10:26:57;;;;;;;2.17;1.38;;;;;;;23.13;22.64;92046.78;5086909;28;20063;-53
2022/04/02 10:30:11;;;;;;;10.40;6.63;;;;;;;22.69;23.82;92040.00;5103532;28;20019;-53
2022/04/02 10:33:26;;;;;;;4.05;3.42;;;;;;;21.62;24.06;92045.97;5076910;28;20040;-50
2022/04/02 10:35:53;;;;;;;5.90;2.03;;;;;;;21.32;24.15;92050.66;5086796;28;20028;-53
2022/04/02 10:38:19;;;;;;;5.90;3.05;;;;;;;20.76;24.87;92043.84;5087187;28;20119;-53
2022/04/02 10:40:52;;;;;;;6.07;3.70;;;;;;;20.72;28.30;92035.31;5102804;28;20514;-53
2022/04/02 10:43:28;;;;;;;12.00;8.07;;;;;;;20.75;26.53;92038.88;5106730;28;20043;-52
2022/04/02 10:45:56;;;;;;;5.13;4.15;;;;;;;20.55;25.97;92022.09;5106831;28;20034;-53
2022/04/02 10:48:43;;;;;;;5.40;1.30;;;;;;;19.42;27.33;92042.41;5107173;28;20027;-54
2022/04/02 10:51:10;;;;;;;4.70;2.25;;;;;;;19.49;28.37;92044.78;5106960;28;20519;-54
2022/04/02 10:53:41;;;;;;;1.55;1.45;;;;;;;19.28;27.01;92034.13;5105008;28;20030;-55
2022/04/02 10:56:17;;;;;;;5.05;2.70;;;;;;;19.19;28.58;92040.75;5107036;28;20024;-55
2022/04/02 10:58:48;;;;;;;9.35;2.92;;;;;;;19.28;28.92;92041.81;5096155;28;20055;-55
2022/04/02 11:01:17;;;;;;;4.63;3.22;;;;;;;19.15;29.94;92045.47;5087928;28;20052;-54
2022/04/02 11:03:47;;;;;;;9.30;5.18;;;;;;;19.04;28.32;92054.81;5088206;28;20421;-54
2022/04/02 11:06:48;;;;;;;3.42;1.75;;;;;;;18.54;27.83;92028.28;5086390;28;20028;-56
2022/04/02 11:09:34;;;;;;;3.92;1.30;;;;;;;18.29;28.27;92034.19;5087776;28;20035;-57
2022/04/02 11:12:05;;;;;;;4.28;1.23;;;;;;;18.70;28.63;92042.94;5087425;28;20035;-53
2022/04/02 11:14:50;;;;;;;1.52;1.13;;;;;;;19.47;27.28;92033.50;5087776;28;20028;-51
2022/04/02 11:17:36;;;;;;;2.10;1.13;;;;;;;19.82;27.34;92021.53;5101157;28;20032;-55
2022/04/02 11:20:11;;;;;;;2.72;1.80;;;;;;;20.20;25.76;92025.78;5110337;28;20023;-57
2022/04/02 11:22:55;;;;;;;2.47;1.95;;;;;;;21.07;25.02;92026.69;5110748;28;20028;-55
2022/04/02 11:25:32;;;;;;;1.58;1.20;;;;;;;21.55;24.54;92019.06;5114571;28;20028;-55
2022/04/02 11:28:16;;;;;;;2.38;0.98;;;;;;;21.75;23.09;92018.97;5114565;28;20057;-54
2022/04/02 11:31:02;;;;;;;3.47;2.05;;;;;;;21.86;24.72;92024.28;5105589;27;20503;-53
2022/04/02 11:33:27;;;;;;;2.92;0.82;;;;;;;21.17;24.59;92009.47;5112083;28;20039;-53
2022/04/02 11:35:55;;;;;;;3.92;1.00;;;;;;;20.61;25.70;92013.16;5114012;28;20121;-54
2022/04/02 11:38:24;;;;;;;3.38;1.50;;;;;;;21.52;26.10;92009.16;5114331;28;20038;-55
2022/04/02 11:40:55;;;;;;;0.90;0.70;;;;;;;21.83;25.83;92019.22;5112579;28;20101;-52
2022/04/02 11:43:31;;;;;;;2.80;0.90;;;;;;;20.39;26.20;92019.44;5111782;28;20436;-54
2022/04/02 11:46:01;;;;;;;3.97;1.70;;;;;;;20.09;26.82;92018.34;5110382;28;20024;-55
2022/04/02 11:48:33;;;;;;;11.40;2.20;;;;;;;19.89;28.21;92016.88;5109279;28;20042;-56